createdAt,value
2019-04-21T00:00:07.194Z,7.69
2019-04-21T00:01:05.725Z,7.71
2019-04-21T00:02:03.278Z,7.96
2019-04-21T00:03:07.448Z,8.12
2019-04-21T00:04:12.323Z,8.10
2019-04-21T00:05:24.689Z,8.02
2019-04-21T00:06:25.081Z,7.99
2019-04-21T00:07:19.264Z,7.91
2019-04-21T00:08:37.550Z,7.89
2019-04-21T00:09:27.821Z,7.71
2019-04-21T00:10:27.194Z,7.85
2019-04-21T00:11:22.428Z,7.89
2019-04-21T00:12:18.188Z,7.79
2019-04-21T00:13:21.874Z,7.71
2019-04-21T00:14:14.764Z,7.71
2019-04-21T00:15:15.714Z,8.00
2019-04-21T00:16:06.799Z,7.95
2019-04-21T00:17:07.892Z,7.85
2019-04-21T00:18:05.921Z,7.86
2019-04-21T00:19:09.101Z,7.74
2019-04-21T00:20:12.464Z,7.77
2019-04-21T00:21:10.983Z,7.94
2019-04-21T00:22:14.923Z,7.99
2019-04-21T00:23:19.846Z,8.06
2019-04-21T00:24:18.501Z,8.00
2019-04-21T00:25:18.126Z,7.79
2019-04-21T00:26:22.654Z,7.63
2019-04-21T00:27:23.266Z,7.77
2019-04-21T00:28:25.194Z,7.81
2019-04-21T00:29:27.589Z,7.82
2019-04-21T00:30:21.775Z,7.96
2019-04-21T00:31:22.681Z,7.96
2019-04-21T00:32:19.505Z,7.96
2019-04-21T00:33:09.114Z,7.92
2019-04-21T00:34:02.603Z,7.85
2019-04-21T00:35:06.376Z,7.82
2019-04-21T00:36:11.272Z,7.74
2019-04-21T00:37:12.082Z,7.66
2019-04-21T00:38:24.994Z,7.47
2019-04-21T00:39:30.191Z,7.57
2019-04-21T00:40:24.001Z,7.79
2019-04-21T00:41:26.092Z,7.77
2019-04-21T00:42:18.411Z,7.66
2019-04-21T00:43:19.708Z,7.70
2019-04-21T00:44:16.472Z,7.71
2019-04-21T00:45:16.769Z,7.67
2019-04-21T00:46:11.428Z,7.69
2019-04-21T00:47:25.259Z,7.70
2019-04-21T00:48:23.603Z,7.48
2019-04-21T00:49:15.503Z,7.27
2019-04-21T00:50:25.115Z,7.26
2019-04-21T00:51:33.252Z,7.12
2019-04-21T00:52:39.673Z,7.12
2019-04-21T00:53:33.433Z,7.21
2019-04-21T00:54:24.633Z,7.07
2019-04-21T00:55:35.524Z,7.14
2019-04-21T00:56:30.418Z,7.14
2019-04-21T00:57:29.373Z,7.19
2019-04-21T00:58:29.971Z,7.27
2019-04-21T00:59:25.865Z,7.33
2019-04-21T01:00:22.222Z,7.21
2019-04-21T01:01:23.458Z,7.57
2019-04-21T01:02:26.441Z,8.24
2019-04-21T01:03:28.216Z,8.65
2019-04-21T01:04:23.507Z,8.46
2019-04-21T01:05:21.176Z,8.31
2019-04-21T01:06:22.381Z,8.31
2019-04-21T01:07:22.011Z,8.42
2019-04-21T01:08:23.150Z,8.24
2019-04-21T01:09:19.709Z,8.21
2019-04-21T01:10:15.012Z,7.99
2019-04-21T01:11:23.898Z,8.02
2019-04-21T01:12:19.039Z,7.94
2019-04-21T01:13:27.951Z,7.96
2019-04-21T01:14:32.266Z,8.02
2019-04-21T01:15:35.244Z,7.71
2019-04-21T01:16:29.940Z,7.67
2019-04-21T01:17:21.776Z,7.52
2019-04-21T01:18:20.534Z,7.71
2019-04-21T01:19:23.183Z,7.77
2019-04-21T01:20:16.211Z,7.81
2019-04-21T01:21:13.367Z,7.69
2019-04-21T01:22:01.232Z,8.06
2019-04-21T01:23:00.341Z,7.85
2019-04-21T01:24:07.941Z,7.67
2019-04-21T01:25:08.957Z,7.55
2019-04-21T01:26:16.741Z,7.52
2019-04-21T01:27:11.232Z,7.42
2019-04-21T01:28:18.839Z,7.34
2019-04-21T01:29:15.786Z,7.30
2019-04-21T01:30:22.238Z,7.27
2019-04-21T01:31:17.076Z,7.29
2019-04-21T01:32:27.930Z,7.11
2019-04-21T01:33:26.067Z,7.18
2019-04-21T01:34:23.379Z,7.37
2019-04-21T01:35:20.672Z,7.42
2019-04-21T01:36:18.133Z,7.48
2019-04-21T01:37:21.047Z,7.73
2019-04-21T01:38:22.645Z,7.82
2019-04-21T01:39:29.398Z,8.09
2019-04-21T01:40:44.978Z,8.28
2019-04-21T01:41:28.086Z,8.34
2019-04-21T01:42:23.872Z,8.31
2019-04-21T01:43:18.602Z,8.10
2019-04-21T01:44:25.056Z,7.95
2019-04-21T01:45:22.398Z,7.85
2019-04-21T01:46:22.527Z,7.76
2019-04-21T01:47:16.160Z,7.95
2019-04-21T01:48:15.858Z,7.82
2019-04-21T01:49:13.065Z,7.60
2019-04-21T01:50:20.334Z,7.70
2019-04-21T01:51:15.058Z,7.50
2019-04-21T01:52:24.043Z,7.63
2019-04-21T01:53:28.310Z,7.74
2019-04-21T01:54:26.934Z,7.62
2019-04-21T01:55:26.366Z,7.50
2019-04-21T01:56:19.662Z,7.39
2019-04-21T01:57:17.553Z,7.36
2019-04-21T01:58:16.585Z,7.34
2019-04-21T01:59:08.990Z,7.07
2019-04-21T02:00:12.286Z,7.14
2019-04-21T02:01:21.609Z,7.21
2019-04-21T02:02:26.628Z,7.24
2019-04-21T02:03:42.869Z,7.21
2019-04-21T02:04:24.268Z,7.27
2019-04-21T02:05:25.854Z,7.24
2019-04-21T02:06:21.280Z,7.16
2019-04-21T02:07:25.007Z,7.19
2019-04-21T02:08:15.451Z,7.00
2019-04-21T02:09:22.934Z,6.99
2019-04-21T02:10:26.918Z,6.99
2019-04-21T02:11:24.456Z,6.87
2019-04-21T02:12:26.575Z,6.87
2019-04-21T02:13:16.894Z,6.93
2019-04-21T02:14:23.686Z,6.99
2019-04-21T02:15:23.929Z,6.91
2019-04-21T02:16:23.080Z,7.01
2019-04-21T02:17:23.583Z,6.96
2019-04-21T02:18:22.665Z,6.90
2019-04-21T02:19:16.682Z,6.76
2019-04-21T02:20:15.500Z,6.71
2019-04-21T02:21:17.844Z,6.60
2019-04-21T02:22:26.442Z,6.50
2019-04-21T02:23:35.053Z,6.39
2019-04-21T02:24:31.185Z,6.24
2019-04-21T02:25:20.103Z,6.16
2019-04-21T02:26:23.088Z,6.10
2019-04-21T02:27:24.593Z,6.08
2019-04-21T02:28:33.560Z,6.45
2019-04-21T02:29:31.142Z,6.60
2019-04-21T02:30:35.640Z,6.35
2019-04-21T02:32:35.316Z,6.33
2019-04-21T02:33:40.961Z,6.38
2019-04-21T02:34:32.252Z,6.21
2019-04-21T02:36:44.814Z,6.14
2019-04-21T02:39:29.748Z,5.83
2019-04-21T02:40:47.835Z,5.74
2019-04-21T02:41:34.632Z,5.85
2019-04-21T02:42:39.434Z,5.81
2019-04-21T02:43:26.637Z,5.77
2019-04-21T02:44:39.268Z,5.70
2019-04-21T02:45:34.277Z,5.83
2019-04-21T02:46:40.079Z,5.77
2019-04-21T02:50:31.725Z,5.78
2019-04-21T02:51:36.997Z,5.81
2019-04-21T02:52:35.548Z,5.81
2019-04-21T02:56:35.753Z,5.83
2019-04-21T02:57:35.594Z,5.93
2019-04-21T02:58:37.745Z,5.85
2019-04-21T02:59:33.101Z,6.03
2019-04-21T03:00:32.238Z,6.10
2019-04-21T03:01:44.220Z,5.92
2019-04-21T03:03:36.340Z,5.96
2019-04-21T03:04:34.922Z,5.93
2019-04-21T03:05:43.289Z,5.87
2019-04-21T03:06:32.381Z,5.78
2019-04-21T03:07:34.600Z,5.69
2019-04-21T03:08:44.810Z,5.66
2019-04-21T03:10:38.116Z,5.59
2019-04-21T03:11:52.782Z,5.80
2019-04-21T03:12:32.185Z,6.39
2019-04-21T03:15:39.556Z,6.93
2019-04-21T03:18:36.403Z,6.60
2019-04-21T03:19:37.999Z,6.53
2019-04-21T03:20:36.826Z,6.55
2019-04-21T03:21:29.119Z,6.60
2019-04-21T03:22:31.566Z,6.61
2019-04-21T03:23:41.689Z,6.53
2019-04-21T03:24:52.617Z,6.48
2019-04-21T03:28:43.571Z,5.87
2019-04-21T03:30:59.552Z,5.90
2019-04-21T03:31:50.910Z,5.74
2019-04-21T03:34:57.387Z,5.73
2019-04-21T03:36:47.672Z,5.80
2019-04-21T03:37:35.369Z,5.81
2019-04-21T03:38:39.397Z,5.77
2019-04-21T03:39:30.919Z,5.66
2019-04-21T03:40:28.679Z,5.60
2019-04-21T03:41:31.799Z,5.59
2019-04-21T03:42:34.817Z,5.65
2019-04-21T03:43:28.460Z,5.78
2019-04-21T03:44:32.286Z,5.67
2019-04-21T03:45:39.274Z,5.75
2019-04-21T03:46:32.752Z,5.78
2019-04-21T03:47:32.660Z,5.80
2019-04-21T03:50:56.243Z,5.77
2019-04-21T03:51:29.559Z,5.67
2019-04-21T03:54:37.610Z,5.69
2019-04-21T03:57:46.348Z,5.75
2019-04-21T03:58:47.379Z,5.75
2019-04-21T03:59:24.940Z,5.67
2019-04-21T04:01:32.748Z,5.69
2019-04-21T04:02:35.125Z,5.74
2019-04-21T04:04:35.611Z,6.08
2019-04-21T04:05:34.615Z,6.20
2019-04-21T04:06:24.552Z,6.17
2019-04-21T04:07:47.169Z,6.11
2019-04-21T04:08:43.924Z,6.02
2019-04-21T04:10:58.928Z,6.20
2019-04-21T04:12:32.134Z,6.16
2019-04-21T04:13:44.914Z,6.01
2019-04-21T04:14:33.450Z,6.02
2019-04-21T04:15:45.343Z,5.96
2019-04-21T04:16:28.781Z,5.95
2019-04-21T04:17:28.779Z,5.93
2019-04-21T04:18:39.275Z,5.77
2019-04-21T04:19:33.040Z,5.74
2019-04-21T04:20:28.286Z,5.77
2019-04-21T04:21:44.234Z,5.67
2019-04-21T04:22:41.142Z,5.80
2019-04-21T04:23:37.474Z,5.80
2019-04-21T04:24:31.642Z,6.02
2019-04-21T04:26:33.493Z,5.93
2019-04-21T04:27:47.790Z,5.92
2019-04-21T04:28:40.249Z,5.92
2019-04-21T04:29:24.557Z,6.01
2019-04-21T04:30:35.732Z,5.96
2019-04-21T04:32:28.669Z,6.01
2019-04-21T04:33:41.775Z,6.17
2019-04-21T04:34:37.813Z,6.17
2019-04-21T04:35:40.541Z,6.16
2019-04-21T04:37:32.824Z,6.17
2019-04-21T04:38:32.222Z,6.27
2019-04-21T04:40:51.724Z,6.20
2019-04-21T04:41:36.883Z,6.35
2019-04-21T04:42:45.684Z,6.33
2019-04-21T04:43:49.777Z,6.45
2019-04-21T04:44:55.521Z,6.50
2019-04-21T04:45:33.416Z,6.36
2019-04-21T04:46:33.390Z,6.40
2019-04-21T04:47:30.117Z,6.42
2019-04-21T04:48:30.484Z,6.45
2019-04-21T04:49:43.197Z,6.32
2019-04-21T04:50:39.245Z,6.35
2019-04-21T04:52:32.668Z,6.35
2019-04-21T04:53:44.369Z,6.32
2019-04-21T04:54:40.099Z,6.35
2019-04-21T04:55:35.818Z,6.35
2019-04-21T04:56:31.435Z,6.30
2019-04-21T04:57:45.164Z,6.35
2019-04-21T04:58:52.945Z,6.48
2019-04-21T05:00:34.599Z,6.75
2019-04-21T05:01:32.652Z,6.78
2019-04-21T05:02:41.741Z,6.89
2019-04-21T05:03:47.310Z,6.86
2019-04-21T05:04:35.515Z,6.97
2019-04-21T05:05:30.061Z,6.93
2019-04-21T05:07:34.179Z,7.12
2019-04-21T05:08:43.909Z,7.26
2019-04-21T05:10:38.512Z,7.36
2019-04-21T05:11:43.174Z,7.62
2019-04-21T05:12:38.851Z,7.77
2019-04-21T05:13:37.526Z,7.92
2019-04-21T05:15:29.597Z,8.20
2019-04-21T05:17:49.170Z,8.32
2019-04-21T05:18:35.158Z,8.32
2019-04-21T05:20:41.781Z,8.31
2019-04-21T05:22:31.143Z,8.25
2019-04-21T05:23:18.148Z,8.29
2019-04-21T05:24:20.891Z,8.29
2019-04-21T05:25:13.447Z,8.37
2019-04-21T05:26:10.981Z,8.34
2019-04-21T05:27:15.569Z,8.28
2019-04-21T05:28:12.688Z,8.32
2019-04-21T05:29:09.007Z,8.34
2019-04-21T05:30:22.140Z,8.36
2019-04-21T05:31:28.502Z,8.31
2019-04-21T05:32:22.950Z,8.32
2019-04-21T05:33:25.926Z,8.34
2019-04-21T05:34:22.041Z,8.36
2019-04-21T05:35:20.078Z,8.39
2019-04-21T05:36:20.974Z,8.34
2019-04-21T05:37:21.998Z,8.31
2019-04-21T05:38:17.174Z,8.32
2019-04-21T05:39:14.840Z,8.36
2019-04-21T05:40:15.646Z,8.34
2019-04-21T05:41:10.027Z,8.37
2019-04-21T05:42:03.945Z,8.42
2019-04-21T05:43:25.241Z,8.43
2019-04-21T05:44:31.231Z,8.42
2019-04-21T05:45:33.476Z,8.49
2019-04-21T05:46:19.673Z,8.52
2019-04-21T05:47:25.010Z,8.50
2019-04-21T05:48:22.956Z,8.57
2019-04-21T05:49:14.076Z,8.63
2019-04-21T05:50:19.102Z,8.58
2019-04-21T05:51:18.133Z,8.65
2019-04-21T05:52:15.010Z,8.68
2019-04-21T05:53:24.372Z,8.68
2019-04-21T05:54:29.422Z,8.79
2019-04-21T05:55:27.762Z,8.80
2019-04-21T05:56:24.061Z,8.91
2019-04-21T05:57:15.078Z,8.89
2019-04-21T05:58:19.405Z,9.04
2019-04-21T05:59:20.124Z,9.16
2019-04-21T06:00:23.690Z,9.24
2019-04-21T06:02:24.276Z,9.74
2019-04-21T06:03:24.002Z,9.92
2019-04-21T06:04:43.038Z,10.18
2019-04-21T06:06:27.582Z,11.02
2019-04-21T06:07:23.031Z,11.38
2019-04-21T06:08:17.934Z,11.97
2019-04-21T06:09:18.995Z,12.40
2019-04-21T06:10:20.369Z,12.56
2019-04-21T06:12:23.572Z,12.89
2019-04-21T06:13:26.570Z,12.87
2019-04-21T06:14:21.634Z,13.25
2019-04-21T06:15:19.807Z,13.53
2019-04-21T06:16:22.350Z,13.83
2019-04-21T06:17:23.736Z,13.87
2019-04-21T06:18:27.243Z,13.99
2019-04-21T06:19:23.663Z,14.17
2019-04-21T06:20:21.170Z,14.57
2019-04-21T06:21:16.154Z,15.12
2019-04-21T06:22:19.419Z,15.38
2019-04-21T06:23:25.119Z,15.77
2019-04-21T06:24:27.003Z,15.66
2019-04-21T06:25:41.011Z,15.60
2019-04-21T06:27:27.474Z,15.89
2019-04-21T06:28:22.614Z,15.91
2019-04-21T06:29:23.842Z,16.06
2019-04-21T06:30:19.340Z,16.33
2019-04-21T06:31:42.411Z,16.60
2019-04-21T06:32:30.379Z,16.50
2019-04-21T06:33:19.671Z,16.84
2019-04-21T06:34:24.422Z,17.05
2019-04-21T06:35:52.903Z,17.27
2019-04-21T06:38:28.323Z,18.29
2019-04-21T06:39:25.186Z,18.79
2019-04-21T06:41:29.762Z,19.40
2019-04-21T06:42:18.574Z,19.64
2019-04-21T06:43:41.960Z,19.02
2019-04-21T06:44:16.750Z,19.09
2019-04-21T06:45:25.619Z,19.49
2019-04-21T06:46:26.464Z,18.97
2019-04-21T06:47:32.528Z,18.99
2019-04-21T06:48:24.766Z,19.31
2019-04-21T06:49:17.214Z,19.85
2019-04-21T06:50:26.593Z,19.45
2019-04-21T06:51:24.068Z,19.07
2019-04-21T06:52:41.934Z,19.58
2019-04-21T06:53:32.824Z,20.48
2019-04-21T06:54:23.837Z,20.83
2019-04-21T06:55:22.448Z,20.85
2019-04-21T06:56:23.600Z,21.00
2019-04-21T06:57:26.075Z,21.15
2019-04-21T06:58:20.807Z,21.26
2019-04-21T06:59:19.220Z,21.26
2019-04-21T07:00:18.552Z,21.45
2019-04-21T07:01:26.519Z,21.96
2019-04-21T07:02:36.174Z,22.20
2019-04-21T07:03:29.420Z,22.33
2019-04-21T07:05:19.991Z,22.11
2019-04-21T07:06:23.717Z,22.23
2019-04-21T07:07:18.149Z,22.31
2019-04-21T07:08:29.025Z,22.11
2019-04-21T07:09:28.038Z,21.67
2019-04-21T07:10:24.194Z,21.52
2019-04-21T07:11:21.668Z,20.98
2019-04-21T07:12:18.545Z,19.92
2019-04-21T07:13:15.297Z,19.10
2019-04-21T07:15:19.518Z,19.28
2019-04-21T07:16:23.470Z,19.71
2019-04-21T07:17:24.730Z,20.01
2019-04-21T07:18:19.163Z,20.37
2019-04-21T07:20:19.753Z,19.97
2019-04-21T07:21:23.443Z,20.19
2019-04-21T07:23:26.110Z,20.96
2019-04-21T07:24:35.503Z,20.78
2019-04-21T07:25:23.867Z,20.88
2019-04-21T07:26:22.292Z,20.41
2019-04-21T07:27:24.022Z,20.78
2019-04-21T07:28:19.266Z,21.38
2019-04-21T07:29:20.441Z,21.81
2019-04-21T07:30:20.802Z,21.77
2019-04-21T07:31:23.239Z,21.49
2019-04-21T07:32:15.318Z,21.63
2019-04-21T07:33:41.187Z,22.14
2019-04-21T07:35:20.722Z,22.46
2019-04-21T07:36:21.387Z,23.07
2019-04-21T07:37:20.802Z,23.50
2019-04-21T07:38:16.565Z,23.42
2019-04-21T07:39:18.436Z,23.26
2019-04-21T07:40:17.721Z,22.44
2019-04-21T07:41:09.448Z,22.24
2019-04-21T07:42:13.459Z,22.61
2019-04-21T07:43:15.219Z,22.67
2019-04-21T07:44:15.644Z,22.59
2019-04-21T07:45:13.028Z,21.61
2019-04-21T07:46:10.198Z,20.97
2019-04-21T07:47:15.767Z,20.26
2019-04-21T07:48:18.770Z,19.92
2019-04-21T07:49:19.115Z,19.82
2019-04-21T07:50:14.858Z,19.35
2019-04-21T07:51:17.245Z,19.12
2019-04-21T07:52:25.666Z,18.51
2019-04-21T07:53:22.290Z,18.11
2019-04-21T07:54:23.254Z,17.74
2019-04-21T07:56:07.445Z,17.40
2019-04-21T07:57:21.331Z,17.18
2019-04-21T07:58:14.569Z,16.88
2019-04-21T07:59:20.346Z,16.80
2019-04-21T08:01:17.995Z,17.02
2019-04-21T08:02:17.048Z,17.25
2019-04-21T08:03:19.302Z,17.45
2019-04-21T08:04:38.010Z,17.47
2019-04-21T08:05:35.297Z,17.40
2019-04-21T08:06:20.480Z,17.51
2019-04-21T08:07:24.479Z,17.49
2019-04-21T08:08:11.608Z,17.55
2019-04-21T08:10:15.569Z,17.91
2019-04-21T08:11:15.101Z,18.09
2019-04-21T08:12:15.769Z,18.21
2019-04-21T08:13:25.168Z,18.42
2019-04-21T08:14:17.023Z,18.21
2019-04-21T08:15:24.947Z,18.09
2019-04-21T08:16:20.066Z,17.74
2019-04-21T08:17:19.079Z,17.58
2019-04-21T08:18:20.412Z,17.42
2019-04-21T08:19:18.769Z,17.35
2019-04-21T08:20:15.693Z,17.27
2019-04-21T08:21:10.725Z,17.51
2019-04-21T08:22:15.799Z,17.47
2019-04-21T08:23:20.086Z,17.57
2019-04-21T08:24:16.285Z,17.57
2019-04-21T08:25:15.131Z,17.76
2019-04-21T08:26:15.583Z,17.99
2019-04-21T08:27:22.421Z,18.32
2019-04-21T08:28:20.469Z,18.04
2019-04-21T08:29:25.721Z,18.02
2019-04-21T08:30:22.663Z,18.34
2019-04-21T08:31:25.890Z,18.71
2019-04-21T08:32:15.481Z,18.93
2019-04-21T08:33:25.110Z,19.16
2019-04-21T08:34:24.174Z,19.27
2019-04-21T08:35:49.687Z,19.40
2019-04-21T08:37:18.295Z,19.87
2019-04-21T08:38:13.578Z,20.17
2019-04-21T08:39:19.984Z,20.26
2019-04-21T08:41:14.932Z,19.83
2019-04-21T08:42:16.899Z,19.60
2019-04-21T08:43:21.670Z,19.75
2019-04-21T08:44:24.337Z,19.65
2019-04-21T08:45:22.671Z,19.71
2019-04-21T08:46:20.268Z,20.04
2019-04-21T08:47:22.074Z,20.15
2019-04-21T08:48:20.637Z,20.61
2019-04-21T08:49:15.607Z,20.91
2019-04-21T08:50:14.914Z,20.81
2019-04-21T08:51:30.173Z,20.78
2019-04-21T08:52:28.473Z,20.87
2019-04-21T08:53:13.775Z,20.87
2019-04-21T08:54:21.564Z,20.98
2019-04-21T08:56:18.212Z,21.56
2019-04-21T08:57:20.179Z,21.73
2019-04-21T08:58:25.318Z,21.64
2019-04-21T08:59:19.015Z,21.24
2019-04-21T09:00:20.365Z,21.51
2019-04-21T09:01:19.189Z,21.75
2019-04-21T09:02:16.776Z,21.74
2019-04-21T09:03:19.566Z,21.51
2019-04-21T09:04:13.333Z,21.58
2019-04-21T09:05:18.946Z,21.55
2019-04-21T09:06:22.228Z,21.30
2019-04-21T09:07:21.317Z,20.94
2019-04-21T09:08:19.888Z,20.69
2019-04-21T09:09:17.914Z,21.34
2019-04-21T09:10:17.315Z,21.73
2019-04-21T09:11:11.450Z,22.01
2019-04-21T09:12:17.690Z,22.35
2019-04-21T09:13:10.149Z,23.15
2019-04-21T09:14:14.720Z,23.31
2019-04-21T09:15:13.882Z,23.45
2019-04-21T09:16:08.489Z,23.21
2019-04-21T09:17:10.844Z,23.42
2019-04-21T09:18:10.236Z,23.45
2019-04-21T09:19:20.195Z,23.81
2019-04-21T09:20:17.236Z,23.77
2019-04-21T09:21:19.442Z,23.14
2019-04-21T09:22:12.877Z,21.74
2019-04-21T09:23:13.370Z,21.45
2019-04-21T09:24:20.999Z,21.73
2019-04-21T09:26:18.592Z,22.29
2019-04-21T09:27:15.866Z,22.15
2019-04-21T09:28:14.035Z,22.04
2019-04-21T09:29:04.391Z,22.12
2019-04-21T09:30:01.252Z,22.46
2019-04-21T09:31:00.939Z,23.39
2019-04-21T09:31:58.038Z,23.63
2019-04-21T09:32:58.142Z,24.04
2019-04-21T09:34:00.300Z,24.37
2019-04-21T09:34:55.972Z,24.46
2019-04-21T09:36:01.256Z,24.15
2019-04-21T09:37:12.710Z,23.53
2019-04-21T09:38:03.948Z,23.42
2019-04-21T09:39:03.438Z,23.21
2019-04-21T09:39:57.819Z,22.52
2019-04-21T09:40:56.499Z,22.54
2019-04-21T09:41:59.132Z,23.25
2019-04-21T09:43:02.420Z,23.57
2019-04-21T09:43:57.459Z,23.38
2019-04-21T09:44:59.468Z,22.39
2019-04-21T09:45:56.715Z,23.25
2019-04-21T09:46:59.687Z,23.87
2019-04-21T09:48:02.693Z,24.37
2019-04-21T09:49:01.932Z,25.35
2019-04-21T09:49:56.303Z,25.34
2019-04-21T09:50:55.127Z,25.94
2019-04-21T09:51:55.248Z,26.36
2019-04-21T09:53:00.262Z,26.41
2019-04-21T09:54:01.803Z,26.38
2019-04-21T09:55:04.213Z,26.00
2019-04-21T09:55:59.734Z,25.85
2019-04-21T09:57:01.607Z,25.96
2019-04-21T09:58:06.956Z,25.54
2019-04-21T09:59:04.080Z,24.93
2019-04-21T10:00:00.924Z,24.94
2019-04-21T10:01:07.486Z,24.93
2019-04-21T10:02:06.507Z,24.19
2019-04-21T10:03:02.946Z,23.84
2019-04-21T10:04:00.049Z,23.77
2019-04-21T10:04:55.716Z,23.86
2019-04-21T10:05:54.662Z,23.82
2019-04-21T10:06:54.633Z,24.02
2019-04-21T10:07:55.244Z,23.89
2019-04-21T10:08:58.364Z,24.18
2019-04-21T10:09:55.634Z,24.51
2019-04-21T10:10:54.741Z,24.52
2019-04-21T10:11:54.909Z,24.12
2019-04-21T10:12:54.611Z,23.78
2019-04-21T10:13:55.149Z,23.35
2019-04-21T10:14:55.302Z,23.32
2019-04-21T10:15:54.549Z,22.76
2019-04-21T10:16:57.231Z,22.89
2019-04-21T10:17:54.528Z,23.01
2019-04-21T10:18:54.800Z,23.38
2019-04-21T10:19:55.084Z,23.29
2019-04-21T10:20:54.746Z,23.38
2019-04-21T10:21:54.482Z,23.60
2019-04-21T10:22:55.261Z,23.49
2019-04-21T10:23:54.518Z,23.31
2019-04-21T10:24:54.475Z,23.32
2019-04-21T10:25:54.729Z,23.19
2019-04-21T10:26:55.416Z,23.07
2019-04-21T10:27:54.938Z,23.00
2019-04-21T10:28:58.618Z,22.99
2019-04-21T10:29:56.115Z,22.72
2019-04-21T10:30:54.405Z,22.66
2019-04-21T10:31:54.612Z,22.46
2019-04-21T10:32:54.398Z,22.26
2019-04-21T10:33:54.561Z,22.12
2019-04-21T10:34:55.113Z,22.29
2019-04-21T10:35:55.163Z,22.48
2019-04-21T10:36:55.331Z,22.61
2019-04-21T10:38:10.387Z,22.45
2019-04-21T10:38:57.130Z,22.46
2019-04-21T10:39:55.715Z,22.38
2019-04-21T10:40:54.289Z,22.19
2019-04-21T10:41:55.255Z,22.21
2019-04-21T10:42:54.273Z,22.02
2019-04-21T10:43:55.494Z,21.82
2019-04-21T10:44:54.831Z,21.86
2019-04-21T10:45:54.876Z,21.85
2019-04-21T10:46:55.897Z,21.75
2019-04-21T10:47:54.841Z,21.52
2019-04-21T10:48:54.923Z,21.31
2019-04-21T10:49:54.928Z,21.45
2019-04-21T10:50:54.938Z,21.83
2019-04-21T10:51:55.002Z,22.04
2019-04-21T10:52:55.238Z,22.29
2019-04-21T10:53:54.659Z,22.38
2019-04-21T10:55:12.834Z,22.29
2019-04-21T10:56:09.747Z,22.30
2019-04-21T10:56:55.134Z,22.39
2019-04-21T10:57:54.108Z,22.70
2019-04-21T10:58:54.243Z,23.16
2019-04-21T10:59:56.115Z,23.78
2019-04-21T11:00:54.177Z,24.37
2019-04-21T11:01:54.879Z,24.77
2019-04-21T11:02:54.828Z,25.27
2019-04-21T11:03:55.115Z,25.19
2019-04-21T11:04:54.521Z,25.49
2019-04-21T11:05:54.637Z,26.12
2019-04-21T11:06:57.927Z,27.09
2019-04-21T11:08:07.651Z,26.56
2019-04-21T11:08:57.201Z,26.53
2019-04-21T11:09:54.072Z,26.46
2019-04-21T11:10:54.133Z,26.91
2019-04-21T11:11:53.962Z,27.21
2019-04-21T11:12:54.705Z,27.76
2019-04-21T11:13:54.870Z,27.99
2019-04-21T11:14:53.989Z,27.65
2019-04-21T11:15:55.191Z,27.90
2019-04-21T11:16:54.806Z,27.77
2019-04-21T11:17:55.460Z,27.09
2019-04-21T11:18:53.907Z,26.66
2019-04-21T11:19:54.848Z,27.33
2019-04-21T11:20:54.923Z,27.21
2019-04-21T11:21:54.653Z,26.66
2019-04-21T11:22:53.853Z,26.61
2019-04-21T11:23:54.271Z,26.73
2019-04-21T11:24:53.840Z,27.61
2019-04-21T11:25:53.974Z,27.78
2019-04-21T11:26:53.946Z,27.25
2019-04-21T11:27:55.229Z,26.35
2019-04-21T11:28:54.935Z,26.21
2019-04-21T11:29:53.801Z,26.42
2019-04-21T11:30:54.872Z,26.98
2019-04-21T11:31:54.840Z,27.34
2019-04-21T11:32:55.173Z,27.01
2019-04-21T11:33:53.760Z,27.21
2019-04-21T11:34:54.837Z,27.16
2019-04-21T11:35:54.891Z,26.98
2019-04-21T11:36:54.378Z,27.38
2019-04-21T11:38:04.609Z,27.74
2019-04-21T11:39:09.795Z,27.35
2019-04-21T11:40:00.125Z,27.71
2019-04-21T11:40:55.839Z,28.01
2019-04-21T11:41:54.061Z,28.39
2019-04-21T11:42:53.711Z,28.58
2019-04-21T11:43:54.929Z,28.98
2019-04-21T11:44:53.647Z,28.72
2019-04-21T11:45:54.766Z,28.27
2019-04-21T11:46:54.395Z,28.14
2019-04-21T11:47:54.465Z,27.72
2019-04-21T11:48:54.729Z,28.18
2019-04-21T11:49:54.859Z,28.57
2019-04-21T11:50:55.056Z,28.72
2019-04-21T11:51:53.616Z,28.83
2019-04-21T11:52:54.841Z,28.69
2019-04-21T11:53:54.867Z,28.33
2019-04-21T11:54:54.976Z,28.27
2019-04-21T11:55:55.156Z,27.40
2019-04-21T11:56:54.807Z,26.88
2019-04-21T11:57:55.226Z,26.91
2019-04-21T11:58:54.083Z,27.21
2019-04-21T11:59:53.609Z,26.39
2019-04-21T12:00:53.906Z,25.96
2019-04-21T12:01:54.046Z,26.08
2019-04-21T12:02:53.467Z,26.39
2019-04-21T12:03:53.763Z,26.83
2019-04-21T12:04:53.763Z,26.32
2019-04-21T12:05:53.442Z,25.96
2019-04-21T12:06:55.588Z,26.20
2019-04-21T12:07:53.479Z,26.31
2019-04-21T12:08:57.558Z,25.97
2019-04-21T12:09:55.509Z,25.98
2019-04-21T12:10:53.562Z,26.20
2019-04-21T12:11:53.765Z,26.23
2019-04-21T12:12:53.381Z,25.93
2019-04-21T12:13:54.265Z,25.69
2019-04-21T12:14:54.238Z,25.60
2019-04-21T12:15:54.708Z,25.79
2019-04-21T12:16:53.347Z,26.08
2019-04-21T12:17:54.297Z,26.00
2019-04-21T12:18:54.574Z,25.51
2019-04-21T12:19:54.514Z,25.42
2019-04-21T12:20:53.743Z,25.26
2019-04-21T12:22:04.979Z,25.42
2019-04-21T12:22:54.905Z,25.48
2019-04-21T12:23:54.390Z,25.71
2019-04-21T12:24:53.388Z,25.79
2019-04-21T12:25:53.259Z,25.67
2019-04-21T12:26:53.886Z,25.72
2019-04-21T12:27:54.146Z,25.98
2019-04-21T12:28:53.604Z,26.04
2019-04-21T12:29:53.530Z,26.08
2019-04-21T12:30:53.766Z,25.98
2019-04-21T12:31:53.895Z,26.09
2019-04-21T12:32:53.907Z,26.34
2019-04-21T12:33:54.023Z,26.20
2019-04-21T12:34:53.866Z,26.00
2019-04-21T12:35:53.747Z,25.91
2019-04-21T12:36:53.162Z,25.57
2019-04-21T12:37:53.237Z,25.64
2019-04-21T12:38:57.353Z,25.66
2019-04-21T12:39:54.742Z,25.69
2019-04-21T12:40:53.095Z,25.94
2019-04-21T12:41:54.219Z,25.93
2019-04-21T12:42:53.076Z,25.93
2019-04-21T12:43:53.096Z,25.96
2019-04-21T12:44:53.067Z,26.16
2019-04-21T12:45:53.835Z,26.11
2019-04-21T12:46:54.037Z,25.98
2019-04-21T12:47:53.926Z,25.93
2019-04-21T12:48:53.824Z,25.94
2019-04-21T12:49:54.043Z,25.74
2019-04-21T12:50:54.218Z,25.59
2019-04-21T12:51:53.517Z,25.53
2019-04-21T12:52:53.640Z,25.63
2019-04-21T12:53:54.047Z,25.57
2019-04-21T12:54:53.548Z,25.69
2019-04-21T12:55:53.814Z,25.93
2019-04-21T12:56:53.761Z,25.63
2019-04-21T12:57:53.206Z,25.26
2019-04-21T12:58:53.288Z,25.04
2019-04-21T12:59:52.998Z,25.29
2019-04-21T13:00:52.897Z,25.27
2019-04-21T13:01:52.911Z,25.24
2019-04-21T13:02:54.033Z,25.12
2019-04-21T13:03:52.862Z,25.11
2019-04-21T13:04:54.221Z,25.04
2019-04-21T13:05:53.755Z,25.05
2019-04-21T13:06:52.855Z,24.94
2019-04-21T13:07:53.366Z,24.79
2019-04-21T13:08:59.430Z,24.67
2019-04-21T13:09:54.594Z,24.51
2019-04-21T13:10:53.922Z,24.44
2019-04-21T13:11:53.066Z,24.44
2019-04-21T13:12:54.145Z,24.31
2019-04-21T13:13:53.661Z,24.31
2019-04-21T13:14:55.652Z,24.08
2019-04-21T13:15:53.492Z,24.05
2019-04-21T13:16:52.765Z,24.00
2019-04-21T13:17:52.727Z,24.04
2019-04-21T13:18:53.435Z,24.08
2019-04-21T13:19:53.592Z,24.08
2019-04-21T13:20:53.896Z,24.09
2019-04-21T13:21:53.923Z,24.15
2019-04-21T13:22:54.038Z,24.19
2019-04-21T13:23:52.811Z,24.12
2019-04-21T13:24:53.770Z,24.12
2019-04-21T13:25:54.023Z,24.29
2019-04-21T13:26:57.594Z,24.24
2019-04-21T13:27:54.483Z,24.11
2019-04-21T13:28:52.632Z,23.96
2019-04-21T13:29:52.589Z,23.71
2019-04-21T13:30:53.939Z,23.52
2019-04-21T13:31:52.599Z,23.47
2019-04-21T13:32:53.469Z,23.19
2019-04-21T13:33:52.560Z,23.01
2019-04-21T13:34:52.794Z,23.09
2019-04-21T13:35:53.130Z,23.06
2019-04-21T13:36:53.803Z,23.12
2019-04-21T13:37:52.542Z,23.07
2019-04-21T13:39:29.795Z,23.14
2019-04-21T13:40:14.724Z,23.03
2019-04-21T13:41:12.149Z,23.00
2019-04-21T13:42:02.742Z,23.03
2019-04-21T13:42:57.232Z,22.86
2019-04-21T13:43:54.972Z,22.67
2019-04-21T13:44:53.259Z,22.64
2019-04-21T13:45:52.441Z,22.63
2019-04-21T13:46:52.565Z,22.56
2019-04-21T13:47:52.800Z,22.46
2019-04-21T13:48:52.757Z,22.48
2019-04-21T13:49:53.462Z,22.48
2019-04-21T13:50:53.460Z,22.45
2019-04-21T13:51:52.357Z,22.41
2019-04-21T13:52:52.377Z,22.35
2019-04-21T13:53:53.505Z,22.27
2019-04-21T13:54:53.675Z,22.19
2019-04-21T13:55:52.914Z,22.27
2019-04-21T13:56:52.453Z,22.21
2019-04-21T13:57:52.589Z,22.21
2019-04-21T13:58:52.660Z,22.24
2019-04-21T13:59:53.132Z,22.19
2019-04-21T14:00:52.789Z,22.26
2019-04-21T14:01:52.257Z,22.31
2019-04-21T14:02:52.543Z,22.17
2019-04-21T14:03:53.450Z,22.24
2019-04-21T14:04:53.595Z,22.15
2019-04-21T14:05:52.222Z,22.08